Time;durP1;ratioP1;P1;durP2;ratioP2;P2;SDS_P1;SDS_P2;PMS_P1;PMS_P2;Temp;Humidity;BMP_temperature;BMP_pressure;BME280_temperature;BME280_humidity;BME280_pressure;Samples;Min_cycle;Max_cycle;Signal;HPM_P1;HPM_P2
2021/08/21 00:00:54;;;;;;;0.40;0.40;;;22.10;59.20;;;;;;5068674;28;20025;-35
2021/08/21 00:03:20;;;;;;;0.47;0.32;;;22.00;59.00;;;;;;5084631;28;20028;-35
2021/08/21 00:05:46;;;;;;;0.40;0.40;;;22.00;59.20;;;;;;5075299;28;20083;-35
2021/08/21 00:08:13;;;;;;;0.60;0.60;;;22.00;59.00;;;;;;5082746;28;20126;-35
2021/08/21 00:10:39;;;;;;;0.40;0.40;;;22.00;58.90;;;;;;5085246;28;20025;-35
2021/08/21 00:13:05;;;;;;;0.40;0.40;;;22.00;58.90;;;;;;5085168;28;20040;-35
2021/08/21 00:15:31;;;;;;;0.40;0.40;;;22.00;58.80;;;;;;5084920;28;20098;-35
2021/08/21 00:17:57;;;;;;;1.38;0.40;;;22.00;58.90;;;;;;5082974;28;20035;-35
2021/08/21 00:20:24;;;;;;;0.30;0.30;;;21.90;58.70;;;;;;5084449;28;20088;-35
2021/08/21 00:22:50;;;;;;;0.40;0.40;;;21.90;58.60;;;;;;5085086;28;20039;-35
2021/08/21 00:25:16;;;;;;;0.40;0.40;;;21.90;58.60;;;;;;5083890;28;20028;-35
2021/08/21 00:27:43;;;;;;;0.50;0.50;;;21.90;58.70;;;;;;5084943;28;20032;-35
2021/08/21 00:30:09;;;;;;;0.40;0.40;;;21.90;58.50;;;;;;5084472;28;20147;-35
2021/08/21 00:32:36;;;;;;;0.40;0.40;;;21.80;58.90;;;;;;5066321;28;20040;-35
2021/08/21 00:35:03;;;;;;;0.40;0.40;;;21.80;58.70;;;;;;5049896;28;20503;-35
2021/08/21 00:37:29;;;;;;;0.55;0.55;;;21.80;59.00;;;;;;5067137;28;20036;-35
2021/08/21 00:39:55;;;;;;;0.35;0.35;;;21.80;58.80;;;;;;5074629;28;20108;-35
2021/08/21 00:42:22;;;;;;;0.50;0.40;;;21.80;59.10;;;;;;5084730;28;20786;-35
2021/08/21 00:44:48;;;;;;;0.57;0.57;;;21.80;59.90;;;;;;5083142;28;20040;-36
2021/08/21 00:47:18;;;;;;;0.50;0.50;;;21.80;59.80;;;;;;5083517;28;20055;-35
2021/08/21 00:49:46;;;;;;;0.40;0.40;;;21.80;60.40;;;;;;5084008;28;20025;-35
2021/08/21 00:52:27;;;;;;;0.50;0.50;;;21.80;60.50;;;;;;5064159;28;20120;-35
2021/08/21 00:54:53;;;;;;;0.40;0.40;;;21.90;61.30;;;;;;5082951;28;20021;-35
2021/08/21 00:57:20;;;;;;;0.80;0.40;;;21.90;61.80;;;;;;5083986;28;20043;-36
2021/08/21 00:59:48;;;;;;;0.50;0.50;;;21.90;62.40;;;;;;5075922;28;20032;-36
2021/08/21 01:02:15;;;;;;;0.50;0.43;;;22.00;61.50;;;;;;5071542;28;20402;-35
2021/08/21 01:04:43;;;;;;;1.27;0.60;;;22.00;61.60;;;;;;5079743;28;20564;-35
2021/08/21 01:07:10;;;;;;;0.50;0.50;;;22.00;61.70;;;;;;5063893;28;20033;-35
2021/08/21 01:09:38;;;;;;;0.45;0.40;;;22.10;62.90;;;;;;5069779;28;20028;-35
2021/08/21 01:12:14;;;;;;;0.47;0.47;;;22.10;63.00;;;;;;5084255;28;20062;-35
2021/08/21 01:14:44;;;;;;;0.60;0.60;;;22.10;62.60;;;;;;5084239;28;20094;-36
2021/08/21 01:17:10;;;;;;;0.73;0.50;;;22.10;62.70;;;;;;5083558;28;20027;-35
2021/08/21 01:19:38;;;;;;;1.00;0.45;;;22.10;63.40;;;;;;5084134;28;20029;-35
2021/08/21 01:22:11;;;;;;;0.77;0.50;;;22.20;63.30;;;;;;5084021;28;20031;-35
2021/08/21 01:24:41;;;;;;;0.50;0.50;;;22.20;63.40;;;;;;5079076;28;20511;-36
2021/08/21 01:27:11;;;;;;;0.60;0.60;;;22.20;63.70;;;;;;5083309;28;20036;-35
2021/08/21 01:29:40;;;;;;;0.57;0.50;;;22.30;64.00;;;;;;5064965;28;20064;-35
2021/08/21 01:32:06;;;;;;;0.60;0.60;;;22.30;64.00;;;;;;5083156;28;20044;-35
2021/08/21 01:34:33;;;;;;;0.52;0.52;;;22.30;64.00;;;;;;5083230;28;20033;-35
2021/08/21 01:36:59;;;;;;;0.50;0.50;;;22.30;64.10;;;;;;5083234;28;20532;-36
2021/08/21 01:39:25;;;;;;;1.17;0.60;;;22.30;64.30;;;;;;5083287;28;20024;-36
2021/08/21 01:41:51;;;;;;;0.82;0.60;;;22.40;64.40;;;;;;5083972;28;20708;-36
2021/08/21 01:44:18;;;;;;;0.63;0.57;;;22.40;65.00;;;;;;5083215;28;20028;-36
2021/08/21 01:46:47;;;;;;;0.57;0.50;;;22.40;65.00;;;;;;5072419;28;20047;-36
2021/08/21 01:49:14;;;;;;;0.80;0.70;;;22.50;65.20;;;;;;5063066;28;20033;-36
2021/08/21 01:51:45;;;;;;;0.95;0.50;;;22.50;65.40;;;;;;5063238;28;20056;-36
2021/08/21 01:54:23;;;;;;;0.60;0.60;;;22.60;65.60;;;;;;5058943;28;20068;-35
2021/08/21 01:56:54;;;;;;;1.05;0.75;;;22.60;65.60;;;;;;5082952;28;20050;-35
2021/08/21 01:59:39;;;;;;;2.15;0.80;;;22.60;65.70;;;;;;5083207;28;20033;-36
2021/08/21 02:02:13;;;;;;;0.80;0.80;;;22.60;66.00;;;;;;5065241;28;20052;-36
2021/08/21 02:04:39;;;;;;;1.05;0.95;;;22.60;66.00;;;;;;5082962;28;20035;-35
2021/08/21 02:07:05;;;;;;;0.68;0.68;;;22.70;66.10;;;;;;5080195;28;20033;-36
2021/08/21 02:09:33;;;;;;;0.75;0.65;;;22.70;66.20;;;;;;5051520;28;20020;-36
2021/08/21 02:12:00;;;;;;;0.80;0.80;;;22.70;66.20;;;;;;5072835;28;20040;-36
2021/08/21 02:14:27;;;;;;;0.75;0.73;;;22.80;65.50;;;;;;5076638;28;20055;-36
2021/08/21 02:16:55;;;;;;;1.17;0.82;;;22.80;65.20;;;;;;5069572;28;20140;-35
2021/08/21 02:19:22;;;;;;;0.50;0.50;;;22.80;65.00;;;;;;5077907;28;20028;-35
2021/08/21 02:21:48;;;;;;;2.25;0.80;;;22.80;64.90;;;;;;5063023;28;20040;-37
2021/08/21 02:24:15;;;;;;;0.80;0.80;;;22.80;65.40;;;;;;5074829;28;20512;-36
2021/08/21 02:26:45;;;;;;;0.80;0.60;;;22.80;66.00;;;;;;5078625;28;20039;-36
2021/08/21 02:29:12;;;;;;;0.95;0.82;;;22.80;65.90;;;;;;5071041;28;20029;-36
2021/08/21 02:31:38;;;;;;;0.75;0.75;;;22.80;65.80;;;;;;5070173;28;20115;-36
2021/08/21 02:34:04;;;;;;;0.90;0.70;;;22.80;65.80;;;;;;5076644;28;20121;-36
2021/08/21 02:36:30;;;;;;;1.10;0.63;;;22.80;65.70;;;;;;5068139;28;20025;-36
2021/08/21 02:38:57;;;;;;;0.80;0.80;;;22.90;65.40;;;;;;5079889;28;20277;-35
2021/08/21 02:41:23;;;;;;;0.60;0.60;;;22.90;65.40;;;;;;5081326;28;20144;-35
2021/08/21 02:43:49;;;;;;;0.80;0.60;;;22.90;64.50;;;;;;5074028;28;20088;-36
2021/08/21 02:46:15;;;;;;;0.77;0.77;;;22.90;64.90;;;;;;5077433;28;20078;-36
2021/08/21 02:48:42;;;;;;;1.05;0.80;;;22.90;65.30;;;;;;5082227;28;20043;-35
2021/08/21 02:51:08;;;;;;;0.73;0.70;;;22.90;65.50;;;;;;5081736;28;20040;-36
2021/08/21 02:53:34;;;;;;;1.02;0.93;;;22.90;65.40;;;;;;5081077;28;20054;-35
2021/08/21 02:56:01;;;;;;;0.70;0.70;;;22.90;65.40;;;;;;5081520;28;20135;-36
2021/08/21 02:58:27;;;;;;;0.70;0.70;;;22.90;65.30;;;;;;5078183;28;20028;-36
2021/08/21 03:00:54;;;;;;;0.80;0.80;;;23.00;65.10;;;;;;5080596;28;20024;-36
2021/08/21 03:03:20;;;;;;;0.70;0.70;;;23.00;65.10;;;;;;5080422;28;20029;-36
2021/08/21 03:05:46;;;;;;;0.60;0.60;;;22.90;63.70;;;;;;5081799;28;20036;-36
2021/08/21 03:08:12;;;;;;;1.15;0.80;;;22.90;62.60;;;;;;5081225;28;20102;-36
2021/08/21 03:10:38;;;;;;;0.70;0.70;;;22.90;62.80;;;;;;5076729;28;20648;-36
2021/08/21 03:13:04;;;;;;;1.10;0.60;;;22.90;64.00;;;;;;5078592;28;20057;-36
2021/08/21 03:15:31;;;;;;;1.77;0.75;;;22.90;64.50;;;;;;5063393;28;20024;-36
2021/08/21 03:17:57;;;;;;;0.80;0.70;;;22.90;64.40;;;;;;5081011;28;20904;-36
2021/08/21 03:20:24;;;;;;;2.55;0.77;;;22.90;64.40;;;;;;5081687;28;20048;-36
2021/08/21 03:22:50;;;;;;;0.88;0.70;;;23.00;64.60;;;;;;5080523;28;20028;-36
2021/08/21 03:25:16;;;;;;;0.95;0.65;;;22.90;64.80;;;;;;5077677;28;20029;-36
2021/08/21 03:27:43;;;;;;;0.68;0.57;;;23.00;64.70;;;;;;5066899;28;20032;-36
2021/08/21 03:30:09;;;;;;;0.98;0.80;;;23.00;64.70;;;;;;5072143;28;20025;-36
2021/08/21 03:32:35;;;;;;;1.48;0.60;;;23.00;64.70;;;;;;5071077;28;20044;-36
2021/08/21 03:35:02;;;;;;;0.80;0.60;;;23.00;64.40;;;;;;5079371;28;20039;-36
2021/08/21 03:37:28;;;;;;;0.55;0.55;;;23.00;63.70;;;;;;5070912;28;20036;-35
2021/08/21 03:39:54;;;;;;;0.60;0.60;;;23.00;62.90;;;;;;5078568;28;20028;-36
2021/08/21 03:42:20;;;;;;;0.88;0.60;;;23.00;62.80;;;;;;5079718;28;20040;-36
2021/08/21 03:44:46;;;;;;;0.60;0.60;;;23.00;63.50;;;;;;5074242;28;20031;-36
2021/08/21 03:47:12;;;;;;;0.65;0.63;;;23.00;63.90;;;;;;5081545;28;20056;-36
2021/08/21 03:49:39;;;;;;;0.80;0.63;;;23.00;63.90;;;;;;5081273;28;20591;-35
2021/08/21 03:52:05;;;;;;;0.60;0.60;;;23.00;63.90;;;;;;5072177;28;20048;-36
2021/08/21 03:54:31;;;;;;;1.10;0.70;;;23.00;63.90;;;;;;5074836;28;20119;-36
2021/08/21 03:56:57;;;;;;;0.60;0.60;;;23.00;64.00;;;;;;5078415;28;20028;-35
2021/08/21 03:59:23;;;;;;;0.50;0.50;;;23.00;64.00;;;;;;5070178;28;20051;-36
2021/08/21 04:01:50;;;;;;;0.55;0.55;;;23.00;63.80;;;;;;5081489;28;20032;-36
2021/08/21 04:04:16;;;;;;;0.45;0.45;;;23.00;63.80;;;;;;5068938;28;20033;-35
2021/08/21 04:06:42;;;;;;;0.60;0.50;;;23.00;63.80;;;;;;5077858;28;20032;-36
2021/08/21 04:09:08;;;;;;;0.77;0.77;;;23.00;63.80;;;;;;5078714;28;20021;-35
2021/08/21 04:11:34;;;;;;;1.30;0.80;;;23.00;63.80;;;;;;5068398;28;20028;-36
2021/08/21 04:14:00;;;;;;;0.98;0.73;;;23.00;63.80;;;;;;5079296;28;20033;-36
2021/08/21 04:16:27;;;;;;;0.73;0.57;;;23.00;63.80;;;;;;5080558;28;20135;-36
2021/08/21 04:18:53;;;;;;;0.90;0.80;;;23.00;63.80;;;;;;5076759;28;20036;-35
2021/08/21 04:21:19;;;;;;;0.50;0.50;;;23.00;63.80;;;;;;5081001;28;20017;-36
2021/08/21 04:23:45;;;;;;;0.80;0.50;;;23.00;63.80;;;;;;5083279;28;20036;-36
2021/08/21 04:26:11;;;;;;;0.50;0.50;;;23.00;63.70;;;;;;5079744;28;20031;-36
2021/08/21 04:28:38;;;;;;;0.50;0.50;;;23.10;63.70;;;;;;5080896;28;20029;-36
2021/08/21 04:31:04;;;;;;;0.60;0.60;;;23.10;63.80;;;;;;5082155;28;20020;-37
2021/08/21 04:33:30;;;;;;;0.60;0.60;;;23.10;63.70;;;;;;5071001;28;20033;-36
2021/08/21 04:35:56;;;;;;;7.20;0.55;;;23.10;63.60;;;;;;5075026;28;20036;-36
2021/08/21 04:38:22;;;;;;;1.25;0.60;;;23.10;63.60;;;;;;5066748;28;20050;-36
2021/08/21 04:40:48;;;;;;;0.63;0.63;;;23.10;63.60;;;;;;5081592;28;20020;-36
2021/08/21 04:43:16;;;;;;;0.60;0.60;;;23.10;64.20;;;;;;5079606;28;20020;-36
2021/08/21 04:45:43;;;;;;;0.60;0.60;;;23.10;63.50;;;;;;5076298;28;20527;-35
2021/08/21 04:48:09;;;;;;;0.95;0.85;;;23.10;63.50;;;;;;5076066;28;20040;-36
2021/08/21 04:50:36;;;;;;;0.60;0.60;;;23.10;63.40;;;;;;5084876;28;20060;-36
2021/08/21 04:53:05;;;;;;;0.60;0.50;;;23.10;63.50;;;;;;5075946;28;20068;-35
2021/08/21 04:55:32;;;;;;;0.77;0.60;;;23.10;63.40;;;;;;5070765;28;20111;-36
2021/08/21 04:57:58;;;;;;;0.73;0.60;;;23.10;63.30;;;;;;5074472;28;20029;-36
2021/08/21 05:00:29;;;;;;;0.90;0.50;;;23.10;63.30;;;;;;5064836;28;20091;-36
2021/08/21 05:02:57;;;;;;;0.65;0.65;;;23.10;63.30;;;;;;5081171;28;20039;-35
2021/08/21 05:05:26;;;;;;;0.82;0.63;;;23.10;63.30;;;;;;5051905;28;20460;-36
2021/08/21 05:07:52;;;;;;;0.50;0.50;;;23.10;63.20;;;;;;5075534;28;20025;-36
2021/08/21 05:10:18;;;;;;;0.75;0.63;;;23.10;63.20;;;;;;5076682;28;20028;-35
2021/08/21 05:12:45;;;;;;;0.60;0.60;;;23.20;63.20;;;;;;5067922;28;20520;-35
2021/08/21 05:15:12;;;;;;;0.85;0.60;;;23.10;63.10;;;;;;5073878;28;20032;-36
2021/08/21 05:17:38;;;;;;;;;;;23.20;63.20;;;;;;5084722;28;20044;-36
2021/08/21 05:20:51;;;;;;;0.50;0.50;;;23.20;63.10;;;;;;5073310;28;19939;-36
2021/08/21 05:23:08;;;;;;;0.50;0.50;;;23.20;63.60;;;;;;5057426;28;20063;-36
2021/08/21 05:25:48;;;;;;;1.05;0.63;;;23.20;63.10;;;;;;5076302;28;20037;-36
2021/08/21 05:28:17;;;;;;;0.57;0.50;;;23.20;63.10;;;;;;5059744;28;20024;-35
2021/08/21 05:30:43;;;;;;;0.65;0.65;;;23.20;63.10;;;;;;5067663;28;20760;-36
2021/08/21 05:33:16;;;;;;;0.50;0.50;;;23.20;63.10;;;;;;5080677;28;20044;-36
2021/08/21 05:35:43;;;;;;;0.60;0.60;;;23.20;63.10;;;;;;5081327;28;20058;-35
2021/08/21 05:38:09;;;;;;;1.00;0.70;;;23.20;63.10;;;;;;5083835;28;20078;-36
2021/08/21 05:40:36;;;;;;;0.40;0.40;;;23.20;63.10;;;;;;5083738;28;20028;-36
2021/08/21 05:43:02;;;;;;;0.60;0.60;;;23.20;63.10;;;;;;5079755;28;20509;-36
2021/08/21 05:45:28;;;;;;;0.50;0.50;;;23.20;63.10;;;;;;5083862;28;20035;-35
2021/08/21 05:47:54;;;;;;;0.60;0.60;;;23.20;63.10;;;;;;5084022;28;20036;-35
2021/08/21 05:50:21;;;;;;;0.70;0.70;;;23.20;63.10;;;;;;5082702;28;20594;-36
2021/08/21 05:52:48;;;;;;;0.50;0.50;;;23.20;63.10;;;;;;5083590;28;20041;-36
2021/08/21 05:55:14;;;;;;;0.70;0.50;;;23.20;63.10;;;;;;5083007;28;20024;-36
2021/08/21 05:57:40;;;;;;;0.50;0.50;;;23.20;63.00;;;;;;5083168;28;20058;-36
2021/08/21 06:00:08;;;;;;;0.90;0.47;;;23.20;63.00;;;;;;5060997;28;20469;-35
2021/08/21 06:02:34;;;;;;;;;;;23.20;63.10;;;;;;5063961;28;20029;-36
2021/08/21 06:05:00;;;;;;;0.50;0.50;;;23.20;63.00;;;;;;5063174;28;19908;-36
2021/08/21 06:07:26;;;;;;;0.47;0.47;;;23.20;63.00;;;;;;5080455;28;20024;-36
2021/08/21 06:09:52;;;;;;;1.15;0.60;;;23.20;63.00;;;;;;5083439;28;20021;-36
2021/08/21 06:12:18;;;;;;;0.60;0.60;;;23.20;63.00;;;;;;5083417;28;20040;-35
2021/08/21 06:14:44;;;;;;;0.60;0.60;;;23.20;63.00;;;;;;5073296;28;20025;-36
2021/08/21 06:17:11;;;;;;;0.40;0.40;;;23.20;63.00;;;;;;5063307;28;20568;-36
2021/08/21 06:19:37;;;;;;;0.43;0.40;;;23.20;63.00;;;;;;5065368;28;20406;-36
2021/08/21 06:22:04;;;;;;;1.52;0.60;;;23.20;63.00;;;;;;5074945;28;20029;-36
2021/08/21 06:24:30;;;;;;;;;;;23.20;63.00;;;;;;5063191;28;20063;-36
2021/08/21 06:26:56;;;;;;;0.50;0.50;;;23.20;63.00;;;;;;5071824;28;20277;-36
2021/08/21 06:29:22;;;;;;;0.60;0.60;;;23.20;63.00;;;;;;5083030;28;20028;-35
2021/08/21 06:31:48;;;;;;;2.47;0.68;;;23.20;63.00;;;;;;5082663;28;20092;-36
2021/08/21 06:34:15;;;;;;;0.70;0.57;;;23.20;62.90;;;;;;5082509;28;20081;-36
2021/08/21 06:36:41;;;;;;;0.50;0.50;;;23.20;63.00;;;;;;5063414;28;20032;-35
2021/08/21 06:39:07;;;;;;;0.82;0.43;;;23.20;63.00;;;;;;5080082;28;20056;-36
2021/08/21 06:41:33;;;;;;;0.52;0.52;;;23.20;63.00;;;;;;5082481;28;20437;-36
2021/08/21 06:43:59;;;;;;;0.60;0.60;;;23.20;63.00;;;;;;5079364;28;20036;-36
2021/08/21 06:46:25;;;;;;;0.50;0.47;;;23.20;63.00;;;;;;5082664;28;20079;-36
2021/08/21 06:48:51;;;;;;;0.45;0.45;;;23.20;62.90;;;;;;5066038;28;20033;-36
2021/08/21 06:51:18;;;;;;;0.60;0.50;;;23.20;62.90;;;;;;5082219;28;20048;-36
2021/08/21 06:53:44;;;;;;;0.50;0.40;;;23.20;62.80;;;;;;5082277;28;20043;-36
2021/08/21 06:56:11;;;;;;;0.50;0.40;;;23.20;62.90;;;;;;5082469;28;20108;-36
2021/08/21 06:58:37;;;;;;;0.43;0.43;;;23.20;62.90;;;;;;5082545;28;20139;-36
2021/08/21 07:01:03;;;;;;;0.85;0.60;;;23.20;62.80;;;;;;5065651;28;20059;-36
2021/08/21 07:03:29;;;;;;;0.50;0.50;;;23.20;62.80;;;;;;5082162;28;20115;-36
2021/08/21 07:05:55;;;;;;;0.40;0.40;;;23.20;62.90;;;;;;5082455;28;20021;-35
2021/08/21 07:08:21;;;;;;;0.57;0.52;;;23.20;62.90;;;;;;5082839;28;20024;-36
2021/08/21 07:10:47;;;;;;;0.65;0.50;;;23.20;63.00;;;;;;5082688;28;20067;-36
2021/08/21 07:13:14;;;;;;;0.60;0.60;;;23.20;63.00;;;;;;5082403;28;20037;-36
2021/08/21 07:15:40;;;;;;;1.00;0.60;;;23.20;63.10;;;;;;5082662;28;20017;-35
2021/08/21 07:18:06;;;;;;;1.10;0.80;;;23.20;63.10;;;;;;5082431;28;20051;-39
2021/08/21 07:20:32;;;;;;;0.60;0.60;;;23.20;63.10;;;;;;5082676;28;20028;-36
2021/08/21 07:22:58;;;;;;;2.30;0.50;;;23.20;63.10;;;;;;5081911;28;20032;-36
2021/08/21 07:25:24;;;;;;;0.77;0.63;;;23.20;63.10;;;;;;5082543;28;20074;-35
2021/08/21 07:27:51;;;;;;;0.50;0.50;;;23.20;63.20;;;;;;5082441;28;20106;-36
2021/08/21 07:30:17;;;;;;;0.88;0.73;;;23.20;63.20;;;;;;5081852;28;20035;-36
2021/08/21 07:32:43;;;;;;;0.90;0.60;;;23.20;63.10;;;;;;5081708;28;20047;-36
2021/08/21 07:35:09;;;;;;;0.50;0.50;;;23.20;63.20;;;;;;5081591;28;20531;-35
2021/08/21 07:37:36;;;;;;;0.80;0.50;;;23.20;63.20;;;;;;5082138;28;20028;-36
2021/08/21 07:40:04;;;;;;;1.35;0.65;;;23.20;63.20;;;;;;5081747;28;20032;-36
2021/08/21 07:42:30;;;;;;;0.52;0.52;;;23.20;63.20;;;;;;5063760;28;20059;-36
2021/08/21 07:44:56;;;;;;;0.50;0.50;;;23.20;63.30;;;;;;5077865;28;21274;-36
2021/08/21 07:47:22;;;;;;;0.70;0.60;;;23.20;63.30;;;;;;5082129;28;20035;-36
2021/08/21 07:49:49;;;;;;;0.57;0.50;;;23.20;63.30;;;;;;5085901;28;20021;-36
2021/08/21 07:52:15;;;;;;;0.70;0.68;;;23.20;63.30;;;;;;5085361;28;20138;-35
2021/08/21 07:54:41;;;;;;;0.60;0.60;;;23.20;63.40;;;;;;5085191;28;20059;-35
2021/08/21 07:57:07;;;;;;;0.90;0.60;;;23.20;63.40;;;;;;5067612;28;20040;-36
2021/08/21 07:59:33;;;;;;;0.63;0.60;;;23.20;63.40;;;;;;5085251;28;20125;-36
2021/08/21 08:01:59;;;;;;;0.45;0.45;;;23.20;63.40;;;;;;5082232;28;20024;-36
2021/08/21 08:04:26;;;;;;;0.50;0.40;;;23.20;63.40;;;;;;5084288;28;20119;-35
2021/08/21 08:06:52;;;;;;;0.60;0.60;;;23.20;63.40;;;;;;5085577;28;20036;-35
2021/08/21 08:09:18;;;;;;;0.60;0.60;;;23.20;63.40;;;;;;5085710;28;20051;-36
2021/08/21 08:11:44;;;;;;;0.73;0.50;;;23.20;63.40;;;;;;5085545;28;20056;-36
2021/08/21 08:14:10;;;;;;;0.95;0.50;;;23.20;63.40;;;;;;5067198;28;20020;-36
2021/08/21 08:16:36;;;;;;;0.82;0.60;;;23.20;63.40;;;;;;5085540;28;20028;-38
2021/08/21 08:19:03;;;;;;;0.50;0.50;;;23.20;63.40;;;;;;5085491;28;20024;-35
2021/08/21 08:21:29;;;;;;;0.50;0.50;;;23.20;63.40;;;;;;5082300;28;20028;-37
2021/08/21 08:23:56;;;;;;;0.50;0.50;;;23.20;63.40;;;;;;5076838;28;20056;-36
2021/08/21 08:26:22;;;;;;;0.50;0.45;;;23.20;63.30;;;;;;5085375;28;20750;-36
2021/08/21 08:28:48;;;;;;;0.93;0.68;;;23.20;63.40;;;;;;5085369;28;20036;-36
2021/08/21 08:31:16;;;;;;;0.57;0.50;;;23.20;63.30;;;;;;5085351;28;20078;-36
2021/08/21 08:33:42;;;;;;;0.60;0.60;;;23.20;63.30;;;;;;5081177;28;20040;-35
2021/08/21 08:36:09;;;;;;;0.60;0.52;;;23.20;63.30;;;;;;5084984;28;20081;-36
2021/08/21 08:38:35;;;;;;;0.47;0.47;;;23.20;63.40;;;;;;5085339;28;20033;-35
2021/08/21 08:41:01;;;;;;;1.10;0.55;;;23.20;63.40;;;;;;5085242;28;20279;-35
2021/08/21 08:43:28;;;;;;;0.47;0.40;;;23.20;63.40;;;;;;5085024;28;20025;-36
2021/08/21 08:45:55;;;;;;;0.45;0.45;;;23.20;63.40;;;;;;5065625;28;20060;-36
2021/08/21 08:48:21;;;;;;;1.07;0.40;;;23.20;63.40;;;;;;5047359;28;20060;-36
2021/08/21 08:50:49;;;;;;;0.77;0.70;;;23.20;63.50;;;;;;5084332;28;20049;-36
2021/08/21 08:53:16;;;;;;;0.57;0.57;;;23.20;63.40;;;;;;5050081;28;20032;-36
2021/08/21 08:55:43;;;;;;;0.68;0.65;;;23.20;63.50;;;;;;5084562;28;20369;-35
2021/08/21 08:58:10;;;;;;;0.57;0.57;;;23.20;63.50;;;;;;5067214;28;20036;-36
2021/08/21 09:00:36;;;;;;;0.57;0.57;;;23.20;63.50;;;;;;5083928;28;20021;-36
2021/08/21 09:03:03;;;;;;;0.85;0.68;;;23.20;63.50;;;;;;5084408;28;20036;-35
2021/08/21 09:05:41;;;;;;;;;;;23.20;63.50;;;;;;5084666;28;20029;-35
2021/08/21 09:08:07;;;;;;;0.73;0.50;;;23.20;63.60;;;;;;5084803;28;19904;-36
2021/08/21 09:10:34;;;;;;;0.50;0.50;;;23.30;63.60;;;;;;5066555;28;20040;-35
2021/08/21 09:13:14;;;;;;;0.40;0.40;;;23.20;63.60;;;;;;5084452;28;20493;-36
2021/08/21 09:15:41;;;;;;;0.40;0.40;;;23.20;63.60;;;;;;5063137;28;20035;-36
2021/08/21 09:18:09;;;;;;;0.40;0.40;;;23.20;63.60;;;;;;5064534;28;20033;-35
2021/08/21 09:20:50;;;;;;;0.50;0.50;;;23.20;63.60;;;;;;5082410;28;20528;-35
2021/08/21 09:23:33;;;;;;;0.50;0.50;;;23.20;63.70;;;;;;5066236;28;20020;-35
2021/08/21 09:26:30;;;;;;;0.98;0.60;;;23.20;63.60;;;;;;5065894;28;20035;-36
2021/08/21 09:28:58;;;;;;;0.55;0.55;;;23.20;63.70;;;;;;5084137;28;20029;-35
2021/08/21 09:31:28;;;;;;;0.47;0.47;;;23.20;63.70;;;;;;5083572;28;20029;-35
2021/08/21 09:34:00;;;;;;;0.70;0.63;;;23.20;63.70;;;;;;5084102;28;20059;-35
2021/08/21 09:36:43;;;;;;;0.60;0.60;;;23.20;63.70;;;;;;5084238;28;20024;-36
2021/08/21 09:39:13;;;;;;;0.80;0.60;;;23.20;63.80;;;;;;5084056;28;20024;-35
2021/08/21 09:41:59;;;;;;;0.60;0.50;;;23.20;63.70;;;;;;5066415;28;20441;-35
2021/08/21 09:44:36;;;;;;;0.75;0.63;;;23.20;63.80;;;;;;5083592;28;20029;-35
2021/08/21 09:47:29;;;;;;;0.70;0.70;;;23.20;63.80;;;;;;5084080;28;20024;-36
2021/08/21 09:50:17;;;;;;;0.57;0.55;;;23.20;63.80;;;;;;5083920;28;20021;-35
2021/08/21 09:52:44;;;;;;;0.73;0.60;;;23.20;63.80;;;;;;5083340;28;20054;-36
2021/08/21 09:55:15;;;;;;;;;;;23.20;63.80;;;;;;5083752;28;20033;-35
2021/08/21 09:57:41;;;;;;;0.43;0.43;;;23.20;63.80;;;;;;5083865;28;19908;-35
2021/08/21 10:00:08;;;;;;;0.63;0.60;;;23.20;63.80;;;;;;5083076;28;20055;-35
2021/08/21 10:02:34;;;;;;;0.63;0.45;;;23.20;63.90;;;;;;5074762;28;20033;-35
2021/08/21 10:05:01;;;;;;;0.60;0.60;;;23.20;63.80;;;;;;5078512;28;20374;-35
2021/08/21 10:07:36;;;;;;;0.50;0.40;;;23.20;63.90;;;;;;5083203;28;20033;-35
2021/08/21 10:10:03;;;;;;;0.50;0.50;;;23.20;63.90;;;;;;5082979;28;20024;-35
2021/08/21 10:12:30;;;;;;;0.57;0.50;;;23.20;64.10;;;;;;5083067;28;20047;-36
2021/08/21 10:14:56;;;;;;;0.57;0.57;;;23.20;63.90;;;;;;5082838;28;20033;-35
2021/08/21 10:17:22;;;;;;;0.75;0.50;;;23.20;64.00;;;;;;5083301;28;20036;-35
2021/08/21 10:19:49;;;;;;;1.13;0.60;;;23.20;63.90;;;;;;5083132;28;20481;-35
2021/08/21 10:22:15;;;;;;;0.52;0.52;;;23.20;64.00;;;;;;5064944;28;20052;-36
2021/08/21 10:24:47;;;;;;;0.53;0.53;;;23.20;64.00;;;;;;5082753;28;20142;-35
2021/08/21 10:27:30;;;;;;;0.50;0.50;;;23.20;64.00;;;;;;5079460;28;20063;-36
2021/08/21 10:30:08;;;;;;;0.50;0.50;;;23.20;64.10;;;;;;5058191;28;20029;-35
2021/08/21 10:32:40;;;;;;;0.90;0.70;;;23.20;64.90;;;;;;5076586;28;20032;-36
2021/08/21 10:35:06;;;;;;;0.60;0.50;;;23.20;64.10;;;;;;5082387;28;20054;-35
2021/08/21 10:37:37;;;;;;;0.60;0.60;;;23.20;64.10;;;;;;5082481;28;20047;-35
2021/08/21 10:40:29;;;;;;;0.65;0.50;;;23.20;64.20;;;;;;5082882;28;20040;-36
2021/08/21 10:42:56;;;;;;;0.70;0.70;;;23.20;64.20;;;;;;5082717;28;20494;-36
2021/08/21 10:45:42;;;;;;;0.43;0.43;;;23.20;64.20;;;;;;5082482;28;20029;-36
2021/08/21 10:48:12;;;;;;;0.50;0.50;;;23.20;64.20;;;;;;5082760;28;20025;-36
2021/08/21 10:50:47;;;;;;;0.75;0.55;;;23.20;64.20;;;;;;5065086;28;20170;-36
2021/08/21 10:53:23;;;;;;;0.50;0.50;;;23.20;64.20;;;;;;5082490;28;20508;-36
2021/08/21 10:55:49;;;;;;;0.63;0.63;;;23.20;64.20;;;;;;5069271;28;20037;-36
2021/08/21 10:58:19;;;;;;;0.52;0.52;;;23.20;64.10;;;;;;5064162;28;20440;-36
2021/08/21 11:01:13;;;;;;;1.13;0.50;;;23.20;64.20;;;;;;5082428;28;20091;-36
2021/08/21 11:03:39;;;;;;;0.50;0.50;;;23.20;64.20;;;;;;5077297;28;20036;-36
2021/08/21 11:06:09;;;;;;;0.60;0.52;;;23.20;64.20;;;;;;5082217;28;20061;-36
2021/08/21 11:08:38;;;;;;;0.60;0.50;;;23.20;64.30;;;;;;5082161;28;20060;-35
2021/08/21 11:11:12;;;;;;;0.50;0.50;;;23.20;64.30;;;;;;5082213;28;20020;-36
2021/08/21 11:14:05;;;;;;;0.63;0.50;;;23.20;64.30;;;;;;5082398;28;20067;-35
2021/08/21 11:16:52;;;;;;;0.70;0.70;;;23.20;64.50;;;;;;5082186;28;20028;-36
2021/08/21 11:19:28;;;;;;;1.10;0.70;;;23.20;64.60;;;;;;5082190;28;20033;-35
2021/08/21 11:22:17;;;;;;;0.47;0.45;;;23.20;64.60;;;;;;5082190;28;20059;-35
2021/08/21 11:24:52;;;;;;;0.65;0.63;;;23.20;64.60;;;;;;5086469;28;20044;-35
2021/08/21 11:27:32;;;;;;;0.70;0.47;;;23.20;64.60;;;;;;5085214;28;20055;-35
2021/08/21 11:30:12;;;;;;;0.55;0.55;;;23.20;64.70;;;;;;5064749;28;20033;-35
2021/08/21 11:33:02;;;;;;;0.52;0.52;;;23.20;64.60;;;;;;5068101;28;20044;-36
2021/08/21 11:35:35;;;;;;;0.60;0.52;;;23.20;64.60;;;;;;5085746;28;20032;-36
2021/08/21 11:38:08;;;;;;;0.40;0.40;;;23.20;64.60;;;;;;5086015;28;20029;-35
2021/08/21 11:40:48;;;;;;;0.60;0.60;;;23.20;64.60;;;;;;5086208;28;20107;-35
2021/08/21 11:43:24;;;;;;;0.70;0.70;;;23.20;64.60;;;;;;5084984;28;20028;-36
2021/08/21 11:45:51;;;;;;;0.77;0.60;;;23.20;64.60;;;;;;5070897;28;20033;-35
2021/08/21 11:48:17;;;;;;;0.50;0.50;;;23.20;64.60;;;;;;5073635;28;20111;-35
2021/08/21 11:50:45;;;;;;;0.55;0.55;;;23.20;64.50;;;;;;5063102;28;20087;-38
2021/08/21 11:53:21;;;;;;;0.68;0.60;;;23.20;64.60;;;;;;5075994;28;20037;-36
2021/08/21 11:55:48;;;;;;;0.52;0.52;;;23.20;64.60;;;;;;5075946;28;20040;-36
2021/08/21 11:58:14;;;;;;;0.80;0.50;;;23.20;64.60;;;;;;5081370;28;20036;-35
2021/08/21 12:00:43;;;;;;;0.70;0.60;;;23.20;64.70;;;;;;5078388;28;20028;-36
2021/08/21 12:03:11;;;;;;;0.77;0.60;;;23.20;64.80;;;;;;5074739;28;20422;-36
2021/08/21 12:05:44;;;;;;;0.60;0.50;;;23.20;64.80;;;;;;5069103;28;20082;-36
2021/08/21 12:08:24;;;;;;;0.57;0.50;;;23.20;64.90;;;;;;5078216;28;20020;-36
2021/08/21 12:10:55;;;;;;;0.60;0.55;;;23.20;65.00;;;;;;5075557;28;20046;-35
2021/08/21 12:13:25;;;;;;;0.60;0.60;;;23.20;65.00;;;;;;5078111;28;20045;-35
2021/08/21 12:15:52;;;;;;;0.60;0.60;;;23.20;65.00;;;;;;5047101;28;20025;-36
2021/08/21 12:18:19;;;;;;;0.60;0.53;;;23.20;65.00;;;;;;5057990;28;20679;-36
2021/08/21 12:20:46;;;;;;;0.80;0.57;;;23.20;65.00;;;;;;5056511;28;20051;-35
2021/08/21 12:23:13;;;;;;;1.00;0.52;;;23.20;65.00;;;;;;5078288;28;20028;-35
2021/08/21 12:25:55;;;;;;;;;;;23.20;65.00;;;;;;5077695;28;20096;-36
2021/08/21 12:28:24;;;;;;;0.50;0.50;;;23.20;64.90;;;;;;5075625;28;19948;-35
2021/08/21 12:31:09;;;;;;;0.75;0.68;;;23.20;64.90;;;;;;5074368;28;20029;-35
2021/08/21 12:33:40;;;;;;;0.70;0.70;;;23.20;65.00;;;;;;5057776;28;20506;-35
2021/08/21 12:36:20;;;;;;;0.50;0.50;;;23.20;65.00;;;;;;5082037;28;20031;-36
2021/08/21 12:39:04;;;;;;;0.65;0.50;;;23.20;65.00;;;;;;5079915;28;20044;-35
2021/08/21 12:41:31;;;;;;;0.60;0.60;;;23.20;65.00;;;;;;5062764;28;20036;-35
2021/08/21 12:44:04;;;;;;;0.60;0.50;;;23.20;65.00;;;;;;5084305;28;20033;-36
2021/08/21 12:46:30;;;;;;;1.33;0.80;;;23.20;65.00;;;;;;5064223;28;20052;-35
2021/08/21 12:49:06;;;;;;;0.53;0.53;;;23.20;65.00;;;;;;5079473;28;20027;-36
2021/08/21 12:51:37;;;;;;;1.00;0.63;;;23.20;65.10;;;;;;5066388;28;20087;-36
2021/08/21 12:54:12;;;;;;;0.70;0.70;;;23.20;65.20;;;;;;5082564;28;20115;-35
2021/08/21 12:56:39;;;;;;;0.50;0.50;;;23.20;65.20;;;;;;5083962;28;20029;-35